Terminal Aerodrome Forecast
Issued by NWS

Home | Current Version | Previous Version | Text Only | Print | Product List | Glossary On
Versions: 1 2 3 4 5 6 7 8 9 10 11 12 13 14 15 16
000
FTUS44 KJAN 252347 RRA
TAFGTR
TAF
KGTR 252347Z 2600/2624 07004KT 6SM -RA BR BKN030 OVC050
     FM260230 05006KT 3SM RA BR BKN015 OVC050
     FM261000 01006KT 5SM -RA BR BKN008 OVC040
     FM261300 35005KT P6SM VCSH BKN008 OVC250
     FM261500 35007KT P6SM BKN015 BKN250
     FM261700 36008KT P6SM FEW015 SCT250=

USA.gov is the U.S. government's official web portal to all federal, state and local government web resources and services.